Time;durP1;ratioP1;P1;durP2;ratioP2;P2;SDS_P1;SDS_P2;PMS_P1;PMS_P2;Temp;Humidity;BMP_temperature;BMP_pressure;BME280_temperature;BME280_humidity;BME280_pressure;Samples;Min_cycle;Max_cycle;Signal;HPM_P1;HPM_P2
2021/11/17 02:26:14;;;;;;;18.17;8.33;;;8.30;99.90;;;;;;5038694;28;20258;-84
2021/11/17 02:29:02;;;;;;;16.20;7.80;;;8.20;99.90;;;;;;5028895;28;20217;-83
2021/11/17 02:31:50;;;;;;;17.60;8.47;;;8.20;99.90;;;;;;5026144;28;20301;-83
2021/11/17 02:34:39;;;;;;;27.77;11.80;;;8.20;99.90;;;;;;5048646;28;20287;-83
2021/11/17 02:37:26;;;;;;;23.67;10.50;;;8.20;99.90;;;;;;5095815;28;20204;-84
2021/11/17 02:40:21;;;;;;;19.37;9.63;;;8.10;99.90;;;;;;5117855;27;20634;-84
2021/11/17 02:43:09;;;;;;;18.30;9.33;;;8.20;99.90;;;;;;5102485;28;20289;-83
2021/11/17 02:45:53;;;;;;;17.17;7.83;;;8.20;99.90;;;;;;5096577;28;20227;-83
2021/11/17 02:48:36;;;;;;;17.30;7.47;;;8.20;99.90;;;;;;5108333;28;20214;-83
2021/11/17 02:51:29;;;;;;;20.80;9.13;;;8.20;99.90;;;;;;5103532;28;20235;-84
2021/11/17 02:54:27;;;;;;;17.20;7.93;;;8.10;99.90;;;;;;5102037;28;20312;-83
2021/11/17 02:57:07;;;;;;;20.60;8.77;;;8.10;99.90;;;;;;5105673;28;20301;-83
2021/11/17 02:59:48;;;;;;;26.53;11.20;;;8.10;99.90;;;;;;5101736;28;20377;-82
2021/11/17 03:02:40;;;;;;;25.57;10.00;;;8.10;99.90;;;;;;5107015;28;20219;-83
2021/11/17 03:05:32;;;;;;;19.33;9.00;;;8.00;99.90;;;;;;5108372;28;20586;-84
2021/11/17 03:08:12;;;;;;;18.93;8.90;;;8.00;99.90;;;;;;5100004;28;20298;-83
2021/11/17 03:11:05;;;;;;;21.57;10.40;;;8.00;99.90;;;;;;5107569;28;20203;-83
2021/11/17 03:13:48;;;;;;;27.50;11.40;;;8.00;99.90;;;;;;5006375;28;20334;-83
2021/11/17 03:16:32;;;;;;;24.13;10.43;;;8.00;99.90;;;;;;5002733;28;20305;-83
2021/11/17 03:19:20;;;;;;;21.77;9.77;;;8.00;99.90;;;;;;5019644;28;20199;-83
2021/11/17 03:22:15;;;;;;;22.90;9.90;;;8.00;99.90;;;;;;5017943;28;20242;-83
2021/11/17 03:25:03;;;;;;;25.83;11.07;;;8.00;99.90;;;;;;5010595;28;20657;-83
2021/11/17 03:27:46;;;;;;;24.10;10.77;;;8.00;99.90;;;;;;4998560;28;20281;-82
2021/11/17 03:30:33;;;;;;;23.03;10.07;;;7.90;99.90;;;;;;5005385;28;20258;-83
2021/11/17 03:33:24;;;;;;;27.73;11.00;;;7.90;99.90;;;;;;5005187;28;20662;-83
2021/11/17 03:36:13;;;;;;;21.40;9.83;;;7.90;99.90;;;;;;5009307;28;20388;-83
2021/11/17 03:39:03;;;;;;;24.07;10.07;;;7.90;99.90;;;;;;5013046;28;20247;-83
2021/11/17 03:41:55;;;;;;;26.37;10.27;;;7.90;99.90;;;;;;5002814;28;20207;-83
2021/11/17 03:44:45;;;;;;;24.93;9.77;;;7.90;99.90;;;;;;5019917;28;20296;-83
2021/11/17 03:47:30;;;;;;;22.80;9.63;;;7.90;99.90;;;;;;4996696;28;20202;-83
2021/11/17 03:50:23;;;;;;;28.57;11.30;;;7.90;99.90;;;;;;5016003;28;20224;-83
2021/11/17 03:53:03;;;;;;;27.50;11.63;;;7.90;99.90;;;;;;5103774;28;20204;-83
2021/11/17 03:55:47;;;;;;;29.77;11.87;;;7.90;99.90;;;;;;5100265;28;20223;-83
2021/11/17 03:58:26;;;;;;;27.17;12.17;;;7.90;99.90;;;;;;5103943;28;20207;-83
2021/11/17 04:01:09;;;;;;;27.97;11.70;;;7.90;99.90;;;;;;5104809;28;20562;-83
2021/11/17 04:03:56;;;;;;;36.00;14.67;;;7.90;99.90;;;;;;5083301;28;20284;-83
2021/11/17 04:06:39;;;;;;;37.80;15.10;;;7.80;99.90;;;;;;5109726;28;20590;-83
2021/11/17 04:09:25;;;;;;;41.23;14.47;;;7.80;99.90;;;;;;5109708;28;20571;-83
2021/11/17 04:12:07;;;;;;;33.33;13.03;;;7.80;99.90;;;;;;5093847;28;20236;-84
2021/11/17 04:14:46;;;;;;;27.60;12.03;;;7.80;99.90;;;;;;5107290;28;20687;-83
2021/11/17 04:17:30;;;;;;;24.90;10.83;;;7.80;99.90;;;;;;5108925;28;20256;-83
2021/11/17 04:20:08;;;;;;;36.07;13.83;;;7.90;99.90;;;;;;5105615;28;20691;-83
2021/11/17 04:23:05;;;;;;;34.10;14.37;;;7.90;99.90;;;;;;5098913;28;20585;-82
2021/11/17 04:25:46;;;;;;;31.57;13.23;;;7.80;99.90;;;;;;5106358;28;20231;-83
2021/11/17 04:28:38;;;;;;;28.70;12.47;;;7.80;99.90;;;;;;5106873;28;20195;-83
2021/11/17 04:31:30;;;;;;;25.70;10.67;;;7.90;99.90;;;;;;5098126;28;20666;-82
2021/11/17 04:34:21;;;;;;;25.07;11.13;;;7.90;99.90;;;;;;5107413;28;20248;-83
2021/11/17 04:37:05;;;;;;;25.63;11.13;;;7.90;99.90;;;;;;5101416;28;20227;-83
2021/11/17 04:40:35;;;;;;;27.93;10.80;;;7.90;99.90;;;;;;5105579;28;20199;-82
2021/11/17 04:43:24;;;;;;;24.83;10.77;;;7.90;99.90;;;;;;5101493;28;20222;-83
2021/11/17 04:46:04;;;;;;;28.93;11.27;;;8.00;99.90;;;;;;5105173;28;20229;-83
2021/11/17 04:48:53;;;;;;;30.13;11.70;;;8.00;99.90;;;;;;5106809;28;20223;-82
2021/11/17 04:51:42;;;;;;;24.27;9.93;;;8.00;99.90;;;;;;5102235;28;20676;-82
2021/11/17 04:54:36;;;;;;;22.40;10.70;;;8.00;99.90;;;;;;5104641;28;20223;-82
2021/11/17 04:57:23;;;;;;;23.97;10.03;;;8.10;99.90;;;;;;5095508;28;20674;-83
2021/11/17 05:00:06;;;;;;;26.17;10.40;;;8.10;99.90;;;;;;5105348;28;20274;-83
2021/11/17 05:02:53;;;;;;;22.73;9.47;;;8.10;99.90;;;;;;5100968;28;20216;-82
2021/11/17 05:05:34;;;;;;;28.90;11.93;;;8.10;99.90;;;;;;5105493;28;20621;-83
2021/11/17 05:08:11;;;;;;;29.47;11.50;;;8.10;99.90;;;;;;5108966;28;20276;-84
2021/11/17 05:11:02;;;;;;;25.73;10.97;;;8.10;99.90;;;;;;5105614;28;20311;-83
2021/11/17 05:13:40;;;;;;;26.10;10.83;;;8.10;99.90;;;;;;5111783;28;20259;-83
2021/11/17 05:16:19;;;;;;;28.93;12.43;;;8.10;99.90;;;;;;5102593;28;20228;-83
2021/11/17 05:18:54;;;;;;;23.53;10.77;;;8.10;99.90;;;;;;5096635;28;20276;-83
2021/11/17 05:21:47;;;;;;;23.10;10.40;;;8.10;99.90;;;;;;5110703;28;20219;-83
2021/11/17 05:24:30;;;;;;;28.17;11.63;;;8.10;99.90;;;;;;5110689;28;20566;-83
2021/11/17 05:27:12;;;;;;;17.80;8.73;;;8.10;99.90;;;;;;5127669;27;20200;-83
2021/11/17 05:29:54;;;;;;;25.33;11.80;;;8.10;99.90;;;;;;5110255;28;20686;-83
2021/11/17 05:32:33;;;;;;;25.97;12.10;;;8.10;99.90;;;;;;5107131;28;20547;-83
2021/11/17 05:35:14;;;;;;;24.87;11.07;;;8.10;99.90;;;;;;5105894;28;20752;-83
2021/11/17 05:37:52;;;;;;;30.63;12.33;;;8.10;99.90;;;;;;5111226;28;20187;-83
2021/11/17 05:40:38;;;;;;;23.57;10.43;;;8.10;99.90;;;;;;5107575;28;20210;-84
2021/11/17 05:43:18;;;;;;;23.73;9.73;;;8.10;99.90;;;;;;5104223;28;20241;-82
2021/11/17 05:46:10;;;;;;;18.50;9.10;;;8.10;99.90;;;;;;5103126;28;20219;-82
2021/11/17 05:48:48;;;;;;;22.13;10.37;;;8.10;99.90;;;;;;5002629;28;20195;-82
2021/11/17 05:51:37;;;;;;;21.57;9.20;;;8.10;99.90;;;;;;5002159;28;20214;-83
2021/11/17 05:54:21;;;;;;;29.17;12.50;;;8.10;99.90;;;;;;5003968;28;20588;-83
2021/11/17 05:57:01;;;;;;;23.13;10.20;;;8.10;99.90;;;;;;5010153;28;20209;-83
2021/11/17 05:59:48;;;;;;;23.27;10.70;;;8.20;99.90;;;;;;4998653;28;20293;-83
2021/11/17 06:02:41;;;;;;;28.07;11.87;;;8.10;99.90;;;;;;4996882;28;20214;-83
2021/11/17 06:05:07;;;;;;;27.00;11.43;;;8.10;99.90;;;;;;5011663;28;20300;-83
2021/11/17 06:07:34;;;;;;;25.87;11.87;;;8.10;99.90;;;;;;5012114;28;20632;-84
2021/11/17 06:10:08;;;;;;;22.77;11.00;;;8.10;99.90;;;;;;5012269;28;20210;-83
2021/11/17 06:12:36;;;;;;;19.53;9.43;;;8.10;99.90;;;;;;5006340;28;20605;-83
2021/11/17 06:15:05;;;;;;;35.53;13.73;;;8.10;99.90;;;;;;5003508;28;20223;-83
2021/11/17 06:17:32;;;;;;;33.13;14.07;;;8.10;99.90;;;;;;5016724;28;20281;-83
2021/11/17 06:20:00;;;;;;;31.30;12.33;;;8.10;99.90;;;;;;5008720;28;20234;-83
2021/11/17 06:22:30;;;;;;;22.20;10.67;;;8.10;99.90;;;;;;5008450;28;20425;-83
2021/11/17 06:25:00;;;;;;;22.70;10.33;;;8.10;99.90;;;;;;5022173;28;20649;-84
2021/11/17 06:27:32;;;;;;;22.10;9.83;;;8.10;99.90;;;;;;5113554;27;20209;-82
2021/11/17 06:30:00;;;;;;;17.93;8.27;;;8.10;99.90;;;;;;5141038;27;20280;-83
2021/11/17 06:32:29;;;;;;;24.73;10.73;;;8.20;99.90;;;;;;5106109;28;20376;-83
2021/11/17 06:34:57;;;;;;;27.20;10.53;;;8.20;99.90;;;;;;5105146;28;20216;-83
2021/11/17 06:37:26;;;;;;;21.57;10.47;;;8.20;99.90;;;;;;5109672;28;20203;-83
2021/11/17 06:39:55;;;;;;;31.33;13.17;;;8.20;99.90;;;;;;5103913;28;20196;-83
2021/11/17 06:42:26;;;;;;;26.10;11.10;;;8.10;99.90;;;;;;5108893;28;20290;-83
2021/11/17 06:44:55;;;;;;;34.33;14.50;;;8.20;99.90;;;;;;5114951;27;20656;-82
2021/11/17 06:47:23;;;;;;;30.37;12.57;;;8.10;99.90;;;;;;5108989;28;20229;-82
2021/11/17 06:49:52;;;;;;;30.70;12.07;;;8.10;99.90;;;;;;5103218;28;20196;-82
2021/11/17 06:52:20;;;;;;;36.17;16.07;;;8.20;99.90;;;;;;5104975;28;20195;-82
2021/11/17 06:54:47;;;;;;;31.23;12.53;;;8.10;99.90;;;;;;5103005;28;20256;-82
2021/11/17 06:57:14;;;;;;;27.67;12.03;;;8.10;99.90;;;;;;5108982;28;20211;-83
2021/11/17 06:59:41;;;;;;;26.93;11.50;;;8.10;99.90;;;;;;5108858;28;20642;-83
2021/11/17 07:02:10;;;;;;;26.50;10.63;;;8.10;99.90;;;;;;5108003;28;20200;-83
2021/11/17 07:04:38;;;;;;;30.07;11.57;;;8.20;99.90;;;;;;5092489;28;20306;-83
2021/11/17 07:07:07;;;;;;;30.90;13.03;;;8.20;99.90;;;;;;5103115;28;21160;-83
2021/11/17 07:09:35;;;;;;;23.80;10.83;;;8.20;99.90;;;;;;5110028;28;20207;-83
2021/11/17 07:12:02;;;;;;;29.10;12.53;;;8.20;99.90;;;;;;5108385;28;20239;-82
2021/11/17 07:14:30;;;;;;;28.73;11.73;;;8.20;99.90;;;;;;5109438;28;20196;-82
2021/11/17 07:16:58;;;;;;;26.40;11.73;;;8.20;99.90;;;;;;5105872;28;20215;-83
2021/11/17 07:19:27;;;;;;;26.40;11.53;;;8.20;99.90;;;;;;5091240;28;20239;-81
2021/11/17 07:21:57;;;;;;;29.70;13.10;;;8.20;99.90;;;;;;5087850;28;20235;-82
2021/11/17 07:24:27;;;;;;;31.13;13.10;;;8.20;99.90;;;;;;5088070;28;20303;-81
2021/11/17 07:26:55;;;;;;;25.93;11.40;;;8.30;99.90;;;;;;5100030;28;20213;-81
2021/11/17 07:29:22;;;;;;;24.70;11.50;;;8.20;99.90;;;;;;5105643;28;20279;-82
2021/11/17 07:31:50;;;;;;;25.67;11.77;;;8.30;99.90;;;;;;5093512;28;20208;-80
2021/11/17 07:34:17;;;;;;;35.70;13.87;;;8.30;99.90;;;;;;5090985;28;20727;-80
2021/11/17 07:36:47;;;;;;;35.53;14.00;;;8.30;99.90;;;;;;5083416;28;20321;-81
2021/11/17 07:39:15;;;;;;;38.85;15.07;;;8.30;99.90;;;;;;5093491;28;20368;-81
2021/11/17 07:41:43;;;;;;;48.07;17.47;;;8.40;99.90;;;;;;5094861;28;20292;-85
2021/11/17 07:44:14;;;;;;;40.07;15.83;;;8.40;99.90;;;;;;5085374;28;20215;-83
2021/11/17 07:46:41;;;;;;;46.00;17.77;;;8.30;99.90;;;;;;5104932;28;20799;-85
2021/11/17 07:49:08;;;;;;;50.30;18.23;;;8.30;99.90;;;;;;5115478;27;20300;-81
2021/11/17 07:51:35;;;;;;;40.83;15.90;;;8.30;99.90;;;;;;5098009;28;20242;-83
2021/11/17 07:54:04;;;;;;;46.23;18.43;;;8.30;99.90;;;;;;5098010;27;20204;-84
2021/11/17 07:56:33;;;;;;;52.50;19.90;;;8.30;99.90;;;;;;5103222;27;20389;-83
2021/11/17 07:59:01;;;;;;;42.77;16.47;;;8.30;99.90;;;;;;5091335;28;20208;-84
2021/11/17 08:01:29;;;;;;;40.30;16.33;;;8.30;99.90;;;;;;5101913;28;20647;-84
2021/11/17 08:03:57;;;;;;;37.73;15.27;;;8.30;99.90;;;;;;5089373;28;20244;-85
2021/11/17 08:06:26;;;;;;;50.97;20.37;;;8.40;99.90;;;;;;5091456;28;20286;-81
2021/11/17 08:08:54;;;;;;;47.10;16.87;;;8.40;99.90;;;;;;5104995;27;20660;-82
2021/11/17 08:11:23;;;;;;;51.53;18.03;;;8.40;99.90;;;;;;5101514;28;20253;-83
2021/11/17 08:13:50;;;;;;;68.60;23.07;;;8.40;99.90;;;;;;5088287;28;20224;-83
2021/11/17 08:16:18;;;;;;;57.67;21.17;;;8.40;99.90;;;;;;5090538;28;20228;-85
2021/11/17 08:18:46;;;;;;;73.67;23.27;;;8.40;99.90;;;;;;5091566;28;20191;-83
2021/11/17 08:21:16;;;;;;;62.30;21.77;;;8.40;99.90;;;;;;5095432;28;20668;-80
2021/11/17 08:23:44;;;;;;;72.67;25.60;;;8.30;99.90;;;;;;5101898;28;20757;-82
2021/11/17 08:26:12;;;;;;;52.47;20.00;;;8.30;99.90;;;;;;5098118;28;20311;-81
2021/11/17 08:28:41;;;;;;;61.60;21.93;;;8.30;99.90;;;;;;5090046;28;20806;-80
2021/11/17 08:31:10;;;;;;;77.57;24.90;;;8.30;99.90;;;;;;5093405;28;20651;-80
2021/11/17 08:33:38;;;;;;;75.23;25.53;;;8.30;99.90;;;;;;5098898;28;20191;-77
2021/11/17 08:36:05;;;;;;;68.70;24.43;;;8.30;99.90;;;;;;5088029;28;20296;-80
2021/11/17 08:38:34;;;;;;;78.67;25.77;;;8.30;99.90;;;;;;5104307;28;20587;-80
2021/11/17 08:41:03;;;;;;;64.90;22.97;;;8.30;99.90;;;;;;5109896;28;20283;-79
2021/11/17 08:43:32;;;;;;;80.80;27.03;;;8.30;99.90;;;;;;5089755;28;20308;-84
2021/11/17 08:46:01;;;;;;;69.17;24.13;;;8.30;99.90;;;;;;5089203;28;20220;-82
2021/11/17 08:48:30;;;;;;;64.63;22.67;;;8.20;99.90;;;;;;5095997;28;20667;-81
2021/11/17 08:50:59;;;;;;;74.13;26.03;;;8.20;99.90;;;;;;5099475;28;20220;-84
2021/11/17 08:53:32;;;;;;;74.93;25.20;;;8.20;99.90;;;;;;5107634;28;20223;-83
2021/11/17 08:56:00;;;;;;;87.60;29.73;;;8.20;99.90;;;;;;5097497;28;20211;-83
2021/11/17 08:58:28;;;;;;;87.73;28.00;;;8.20;99.90;;;;;;5098819;28;20206;-85
2021/11/17 09:00:55;;;;;;;91.07;31.07;;;8.10;99.90;;;;;;5099929;28;20203;-83
2021/11/17 09:03:24;;;;;;;69.33;25.87;;;8.10;99.90;;;;;;5102424;28;20196;-80
2021/11/17 09:05:54;;;;;;;80.87;28.60;;;8.10;99.90;;;;;;5087467;28;20207;-84
2021/11/17 09:08:23;;;;;;;72.60;27.73;;;8.10;99.90;;;;;;5095403;28;20586;-84
2021/11/17 09:10:53;;;;;;;85.07;29.27;;;8.10;99.90;;;;;;5102400;28;20696;-83
2021/11/17 09:13:20;;;;;;;95.77;31.00;;;8.10;99.90;;;;;;5094574;28;20252;-83
2021/11/17 09:15:52;;;;;;;92.77;30.00;;;8.10;99.90;;;;;;5119622;27;20394;-83
2021/11/17 09:18:22;;;;;;;84.13;28.23;;;8.10;99.90;;;;;;5094084;28;20287;-85
2021/11/17 09:20:52;;;;;;;85.90;29.10;;;8.10;99.90;;;;;;5106105;28;20269;-82
2021/11/17 09:23:20;;;;;;;78.20;25.80;;;8.10;99.90;;;;;;5093576;28;20641;-83
2021/11/17 09:25:47;;;;;;;73.10;26.13;;;8.10;99.90;;;;;;5093290;28;20196;-83
2021/11/17 09:28:16;;;;;;;87.20;30.03;;;8.10;99.90;;;;;;5104376;28;20227;-83
2021/11/17 09:30:43;;;;;;;77.30;26.90;;;8.10;99.90;;;;;;5091056;28;20279;-83
2021/11/17 09:33:14;;;;;;;98.90;31.90;;;8.10;99.90;;;;;;5101188;28;20246;-84
2021/11/17 09:35:42;;;;;;;80.13;28.43;;;8.10;99.90;;;;;;5090991;28;20207;-81
2021/11/17 09:38:12;;;;;;;66.13;23.97;;;8.00;99.90;;;;;;5102784;28;20212;-82
2021/11/17 09:40:41;;;;;;;65.77;24.10;;;8.10;99.90;;;;;;5103275;28;20458;-81
2021/11/17 09:43:11;;;;;;;65.10;23.80;;;8.10;99.90;;;;;;5099954;28;20692;-83
2021/11/17 09:45:41;;;;;;;74.27;25.07;;;8.10;99.90;;;;;;5093475;28;20227;-83
2021/11/17 09:48:12;;;;;;;80.68;29.90;;;8.10;99.90;;;;;;5100887;28;20439;-84
2021/11/17 09:50:43;;;;;;;74.70;27.87;;;8.10;99.90;;;;;;5089802;28;20908;-82
2021/11/17 09:53:18;;;;;;;93.47;31.57;;;8.10;99.90;;;;;;5109221;28;20184;-85
2021/11/17 09:55:49;;;;;;;73.50;26.67;;;8.10;99.90;;;;;;5095404;28;20231;-83
2021/11/17 09:58:23;;;;;;;68.47;26.10;;;8.10;99.90;;;;;;5105918;28;20245;-83
2021/11/17 10:00:55;;;;;;;75.80;27.77;;;8.10;99.90;;;;;;5098703;28;20288;-83
2021/11/17 10:03:27;;;;;;;72.50;28.57;;;8.10;99.90;;;;;;5095777;28;20203;-83
2021/11/17 10:06:45;;;;;;;68.00;26.17;;;8.10;99.90;;;;;;5090388;28;20710;-82
2021/11/17 10:09:35;;;;;;;73.70;25.40;;;8.10;99.90;;;;;;5091838;28;20206;-83
2021/11/17 10:14:58;;;;;;;93.37;31.93;;;8.10;99.90;;;;;;5039453;28;20576;-83
2021/11/17 10:17:42;;;;;;;80.23;29.70;;;8.10;99.90;;;;;;5035680;28;20219;-84
2021/11/17 10:20:23;;;;;;;80.23;27.30;;;8.10;99.90;;;;;;5035808;28;20204;-84
2021/11/17 10:22:53;;;;;;;61.60;23.47;;;8.10;99.90;;;;;;5042292;28;20201;-81
2021/11/17 10:25:24;;;;;;;81.40;29.03;;;8.10;99.90;;;;;;5062758;28;20307;-84
2021/11/17 10:27:58;;;;;;;80.27;27.90;;;8.20;99.90;;;;;;5057106;28;20197;-82
2021/11/17 10:30:31;;;;;;;60.73;24.10;;;8.10;99.90;;;;;;5033331;28;20208;-83
2021/11/17 10:33:09;;;;;;;66.93;26.07;;;8.20;99.90;;;;;;5034965;28;20603;-83
2021/11/17 10:35:43;;;;;;;75.27;26.77;;;8.20;99.90;;;;;;5043248;28;20197;-84
2021/11/17 10:38:17;;;;;;;74.90;27.37;;;8.20;99.90;;;;;;5045373;28;20705;-82
2021/11/17 10:40:53;;;;;;;85.10;28.37;;;8.10;99.90;;;;;;5055117;28;20201;-83
2021/11/17 10:43:24;;;;;;;87.40;29.57;;;8.10;99.90;;;;;;5061463;28;20235;-84
2021/11/17 10:45:58;;;;;;;78.37;28.60;;;8.10;99.90;;;;;;5033656;28;20236;-83
2021/11/17 10:48:29;;;;;;;80.57;29.30;;;8.10;99.90;;;;;;5061564;28;20209;-84
2021/11/17 10:51:07;;;;;;;68.87;26.50;;;8.00;99.90;;;;;;5044430;28;20328;-87
2021/11/17 10:53:36;;;;;;;58.37;22.43;;;8.10;99.90;;;;;;5092796;28;20319;-86
2021/11/17 10:56:06;;;;;;;52.93;20.97;;;8.00;99.90;;;;;;5088059;28;20247;-84
2021/11/17 10:58:37;;;;;;;51.87;20.87;;;8.10;99.90;;;;;;5101178;28;20225;-83
2021/11/17 11:01:13;;;;;;;57.67;22.57;;;8.20;99.90;;;;;;5099969;28;20668;-85
2021/11/17 11:03:43;;;;;;;56.30;22.07;;;8.20;99.90;;;;;;5096266;28;20227;-84
2021/11/17 11:06:15;;;;;;;47.47;18.97;;;8.20;99.90;;;;;;5090358;28;20228;-85
2021/11/17 11:09:01;;;;;;;47.50;17.83;;;8.20;99.90;;;;;;5095006;28;20234;-85
2021/11/17 11:11:31;;;;;;;47.40;18.67;;;8.30;99.90;;;;;;5087868;28;20197;-82
2021/11/17 11:14:01;;;;;;;49.40;19.33;;;8.40;99.90;;;;;;5090736;28;20196;-85
2021/11/17 11:16:31;;;;;;;52.50;21.43;;;8.40;99.90;;;;;;5093159;28;20196;-84
2021/11/17 11:19:27;;;;;;;49.63;22.03;;;8.40;99.90;;;;;;5104481;28;20640;-83
2021/11/17 11:22:04;;;;;;;58.27;22.53;;;8.30;99.90;;;;;;5089151;28;20239;-82
2021/11/17 11:24:34;;;;;;;57.47;23.23;;;8.30;99.90;;;;;;5103819;28;20354;-82
2021/11/17 11:27:33;;;;;;;53.07;20.67;;;8.40;99.90;;;;;;5091910;28;20680;-82
2021/11/17 11:30:39;;;;;;;54.83;22.37;;;8.40;99.90;;;;;;5005083;28;20225;-81
2021/11/17 11:33:23;;;;;;;52.47;20.13;;;8.40;99.90;;;;;;4951390;28;20212;-81
2021/11/17 11:36:27;;;;;;;52.67;20.60;;;8.30;99.90;;;;;;4938450;28;20228;-82
2021/11/17 11:39:31;;;;;;;70.87;27.57;;;8.40;99.90;;;;;;4958421;28;20210;-83
2021/11/17 11:42:59;;;;;;;68.07;26.10;;;8.40;99.90;;;;;;4943990;28;20289;-84
2021/11/17 11:45:40;;;;;;;51.33;21.37;;;8.40;99.90;;;;;;4952997;28;20794;-84
2021/11/17 11:48:10;;;;;;;61.47;24.03;;;8.40;99.90;;;;;;4946697;28;20248;-84
2021/11/17 11:50:53;;;;;;;56.90;22.87;;;8.40;99.90;;;;;;4937663;28;20312;-81
2021/11/17 11:53:26;;;;;;;58.90;24.85;;;8.30;99.90;;;;;;4959094;28;20454;-83
2021/11/17 11:56:21;;;;;;;63.83;25.30;;;8.40;99.90;;;;;;4955425;28;20588;-81
2021/11/17 11:58:49;;;;;;;55.37;22.47;;;8.40;99.90;;;;;;4943872;28;20299;-82
2021/11/17 12:01:22;;;;;;;65.10;24.60;;;8.40;99.90;;;;;;4961154;28;20307;-82
2021/11/17 12:03:56;;;;;;;59.00;24.48;;;8.40;99.90;;;;;;4966824;28;20571;-81
2021/11/17 12:06:34;;;;;;;59.80;24.33;;;8.40;99.90;;;;;;5040312;28;20827;-80
2021/11/17 12:09:19;;;;;;;74.87;29.27;;;8.40;99.90;;;;;;5023317;28;20297;-80
2021/11/17 12:11:51;;;;;;;60.97;23.80;;;8.40;99.90;;;;;;5106297;28;20282;-82
2021/11/17 12:14:45;;;;;;;60.20;23.60;;;8.40;99.90;;;;;;5090281;28;20682;-82
2021/11/17 12:17:13;;;;;;;64.97;26.13;;;8.40;99.90;;;;;;5101339;28;20338;-84
2021/11/17 12:19:51;;;;;;;83.13;31.87;;;8.40;99.90;;;;;;5092116;28;20203;-81
2021/11/17 12:22:21;;;;;;;76.80;29.83;;;8.30;99.90;;;;;;5087485;28;20544;-83
2021/11/17 12:24:51;;;;;;;84.13;31.20;;;8.30;99.90;;;;;;5117383;27;20587;-81
2021/11/17 12:27:20;;;;;;;68.33;29.47;;;8.30;99.90;;;;;;5101241;28;20441;-82
2021/11/17 12:29:54;;;;;;;61.73;25.80;;;8.20;99.90;;;;;;5088107;28;20664;-80
2021/11/17 12:32:48;;;;;;;75.17;29.37;;;8.20;99.90;;;;;;5094694;28;20482;-79
2021/11/17 12:35:24;;;;;;;64.83;24.60;;;8.30;99.90;;;;;;5089544;28;20204;-82
2021/11/17 12:37:55;;;;;;;67.17;27.27;;;8.30;99.90;;;;;;5091792;28;20286;-81
2021/11/17 12:40:37;;;;;;;61.50;25.20;;;8.20;99.90;;;;;;5091660;28;20749;-83
2021/11/17 12:43:07;;;;;;;72.70;27.77;;;8.30;99.90;;;;;;5098623;28;20299;-83
2021/11/17 12:45:39;;;;;;;56.93;23.63;;;8.20;99.90;;;;;;5089542;28;20248;-82
2021/11/17 12:48:12;;;;;;;64.80;24.57;;;8.20;99.90;;;;;;5090824;28;20520;-80
2021/11/17 12:50:50;;;;;;;61.83;23.90;;;8.20;99.90;;;;;;5089356;28;20210;-82
2021/11/17 12:53:22;;;;;;;74.73;27.27;;;8.20;99.90;;;;;;5098963;28;20195;-83
2021/11/17 12:55:51;;;;;;;63.53;25.93;;;8.20;99.90;;;;;;5097046;28;20200;-83
2021/11/17 12:58:24;;;;;;;56.20;23.27;;;8.20;99.90;;;;;;5094882;28;20212;-82
2021/11/17 13:00:58;;;;;;;66.17;25.90;;;8.20;99.90;;;;;;5114242;28;20200;-79
2021/11/17 13:03:37;;;;;;;74.00;28.80;;;8.20;99.90;;;;;;5090758;28;20376;-82
2021/11/17 13:06:19;;;;;;;71.70;29.38;;;8.10;99.90;;;;;;5090260;28;20542;-84
2021/11/17 13:08:47;;;;;;;78.77;28.93;;;8.10;99.90;;;;;;5093926;28;20196;-80
2021/11/17 13:11:19;;;;;;;64.63;25.17;;;8.10;99.90;;;;;;5103536;28;20290;-82
2021/11/17 13:13:51;;;;;;;63.03;24.00;;;8.10;99.90;;;;;;5100092;28;20714;-79
2021/11/17 13:16:26;;;;;;;50.70;23.57;;;8.10;99.90;;;;;;5100842;28;20527;-84
2021/11/17 13:19:00;;;;;;;56.93;24.00;;;8.10;99.90;;;;;;5091149;28;20253;-83
2021/11/17 13:21:33;;;;;;;61.17;24.65;;;8.20;99.90;;;;;;5097418;28;20177;-84
2021/11/17 13:24:42;;;;;;;63.83;24.77;;;8.20;99.90;;;;;;5100452;28;20313;-82
2021/11/17 13:27:34;;;;;;;56.37;25.43;;;8.20;99.90;;;;;;4961258;28;20977;-84
2021/11/17 13:30:16;;;;;;;65.47;25.10;;;8.30;99.90;;;;;;4936730;28;20570;-81
2021/11/17 13:32:46;;;;;;;54.87;21.13;;;8.30;99.90;;;;;;4958957;28;20295;-84
2021/11/17 13:35:32;;;;;;;46.73;20.53;;;8.30;99.90;;;;;;4965784;28;20232;-82
2021/11/17 13:38:15;;;;;;;63.83;24.97;;;8.30;99.90;;;;;;4942668;28;20688;-82
2021/11/17 13:40:45;;;;;;;71.80;28.10;;;8.30;99.90;;;;;;4945318;28;20200;-84
2021/11/17 13:43:13;;;;;;;63.80;26.63;;;8.30;99.90;;;;;;4965446;28;20211;-84
2021/11/17 13:45:41;;;;;;;77.30;29.53;;;8.30;99.90;;;;;;4943794;28;20221;-81
2021/11/17 13:48:09;;;;;;;72.10;28.63;;;8.20;99.90;;;;;;4963757;28;20205;-83
2021/11/17 13:50:39;;;;;;;79.97;32.30;;;8.10;99.90;;;;;;4948363;28;20209;-80
2021/11/17 13:53:10;;;;;;;76.03;29.80;;;8.10;99.90;;;;;;4965431;28;20240;-83
2021/11/17 13:55:40;;;;;;;72.83;29.90;;;8.10;99.90;;;;;;4965265;28;20200;-87
2021/11/17 13:58:08;;;;;;;63.70;26.13;;;8.00;99.90;;;;;;4946066;28;20707;-81
2021/11/17 14:00:38;;;;;;;69.77;28.53;;;8.00;99.90;;;;;;4960518;28;20209;-81
2021/11/17 14:03:06;;;;;;;88.20;32.17;;;7.90;99.90;;;;;;4989478;28;20244;-82
2021/11/17 14:05:39;;;;;;;75.07;29.17;;;7.90;99.90;;;;;;5094608;28;20212;-81
2021/11/17 14:08:06;;;;;;;67.50;27.27;;;7.90;99.90;;;;;;5088353;28;20215;-82
2021/11/17 14:10:33;;;;;;;63.73;25.10;;;7.80;99.90;;;;;;5090736;28;20227;-81
2021/11/17 14:13:01;;;;;;;61.43;24.70;;;7.80;99.90;;;;;;5107978;27;20329;-86
2021/11/17 14:15:28;;;;;;;77.43;30.47;;;7.80;99.90;;;;;;5097689;28;20519;-84
2021/11/17 14:17:55;;;;;;;90.07;35.43;;;7.80;99.90;;;;;;5096124;28;20200;-82
2021/11/17 14:20:23;;;;;;;75.63;30.03;;;7.80;99.90;;;;;;5097736;28;20386;-82
2021/11/17 14:22:52;;;;;;;63.87;26.37;;;7.80;99.90;;;;;;5096598;28;20296;-81
2021/11/17 14:25:22;;;;;;;73.30;29.63;;;7.80;99.90;;;;;;5094859;28;20621;-78
2021/11/17 14:27:51;;;;;;;71.43;28.03;;;7.80;99.90;;;;;;5090292;28;20265;-81
2021/11/17 14:30:21;;;;;;;66.83;27.07;;;7.70;99.90;;;;;;5121458;27;20314;-81
2021/11/17 14:32:51;;;;;;;79.93;31.67;;;7.70;99.90;;;;;;5088473;28;20200;-81
2021/11/17 14:35:20;;;;;;;79.50;31.90;;;7.60;99.90;;;;;;5095510;28;20556;-86
2021/11/17 14:37:47;;;;;;;62.23;25.53;;;7.60;99.90;;;;;;5093157;28;20215;-85
2021/11/17 14:40:19;;;;;;;60.53;26.23;;;7.70;99.90;;;;;;5093396;28;20231;-86
2021/11/17 14:42:47;;;;;;;89.03;33.67;;;7.70;99.90;;;;;;5102258;28;20220;-83
2021/11/17 14:45:18;;;;;;;71.37;28.67;;;7.70;99.90;;;;;;5095497;28;20291;-87
2021/11/17 14:47:46;;;;;;;62.33;25.27;;;7.60;99.90;;;;;;5102504;28;20618;-87
2021/11/17 14:50:14;;;;;;;75.10;29.03;;;7.60;99.90;;;;;;5092642;28;20212;-86
2021/11/17 14:52:41;;;;;;;59.80;24.90;;;7.60;99.90;;;;;;5094868;28;20225;-84
2021/11/17 14:55:11;;;;;;;70.67;27.63;;;7.60;99.90;;;;;;5103951;28;20283;-87
2021/11/17 14:57:41;;;;;;;66.17;27.40;;;7.60;99.90;;;;;;5102080;27;20192;-85
2021/11/17 15:00:11;;;;;;;68.20;28.03;;;7.60;99.90;;;;;;5092818;28;20200;-83
2021/11/17 15:02:39;;;;;;;58.33;25.90;;;7.60;99.90;;;;;;5105991;28;20212;-85
2021/11/17 15:05:08;;;;;;;52.30;22.13;;;7.60;99.90;;;;;;5088708;28;20209;-86
2021/11/17 15:07:35;;;;;;;47.93;21.10;;;7.60;99.90;;;;;;5105068;28;20722;-87
2021/11/17 15:10:03;;;;;;;47.97;20.20;;;7.60;99.90;;;;;;5106023;28;20796;-83
2021/11/17 15:12:33;;;;;;;46.63;20.73;;;7.60;99.90;;;;;;5097810;28;20559;-81
2021/11/17 15:15:04;;;;;;;43.33;18.70;;;7.70;99.90;;;;;;5097307;28;20204;-87
2021/11/17 15:17:31;;;;;;;37.73;16.87;;;7.70;99.90;;;;;;5087310;28;20266;-85
2021/11/17 15:19:58;;;;;;;51.00;20.93;;;7.70;99.90;;;;;;5096159;28;20196;-84
2021/11/17 15:22:25;;;;;;;41.40;19.80;;;7.70;99.90;;;;;;5099127;28;20476;-85
2021/11/17 15:24:52;;;;;;;44.87;19.97;;;7.70;99.90;;;;;;5093386;28;20245;-83
2021/11/17 15:27:34;;;;;;;36.43;16.40;;;7.80;99.90;;;;;;5094775;28;20599;-82
2021/11/17 15:30:06;;;;;;;46.43;19.67;;;7.80;99.90;;;;;;5096913;28;20712;-82
2021/11/17 15:32:34;;;;;;;34.60;15.67;;;7.90;99.90;;;;;;5095167;28;20203;-81
2021/11/17 15:35:02;;;;;;;51.73;22.73;;;7.90;99.90;;;;;;5104433;28;20391;-86
2021/11/17 15:37:29;;;;;;;44.50;20.33;;;7.90;99.90;;;;;;5121955;27;20256;-84
2021/11/17 15:39:56;;;;;;;46.67;20.97;;;7.90;99.90;;;;;;5095156;28;20216;-85
2021/11/17 15:42:23;;;;;;;40.57;17.90;;;7.90;99.90;;;;;;5096151;28;20200;-86
2021/11/17 15:44:50;;;;;;;31.87;15.50;;;7.90;99.90;;;;;;5095168;28;20253;-83
2021/11/17 15:47:23;;;;;;;26.80;12.50;;;7.90;99.90;;;;;;5090800;28;20273;-89
2021/11/17 15:49:50;;;;;;;22.47;10.23;;;7.90;99.90;;;;;;5099363;28;20205;-82